createdAt,value
2018-04-27T00:02:20.346Z,9.00
2018-04-27T00:04:47.846Z,8.90
2018-04-27T00:07:16.597Z,8.90
2018-04-27T00:09:44.092Z,8.80
2018-04-27T00:12:11.606Z,8.90
2018-04-27T00:14:39.118Z,8.90
2018-04-27T00:17:06.614Z,8.90
2018-04-27T00:19:34.138Z,8.80
2018-04-27T00:22:02.398Z,8.80
2018-04-27T00:24:29.910Z,8.70
2018-04-27T00:26:57.427Z,8.90
2018-04-27T00:29:24.930Z,8.90
2018-04-27T00:31:52.458Z,8.90
2018-04-27T00:34:20.725Z,8.90
2018-04-27T00:36:48.296Z,8.80
2018-04-27T00:39:16.574Z,8.80
2018-04-27T00:41:44.831Z,8.70
2018-04-27T00:44:12.365Z,8.60
2018-04-27T00:46:39.874Z,8.70
2018-04-27T00:49:08.172Z,8.60
2018-04-27T00:51:35.680Z,8.40
2018-04-27T00:54:03.182Z,8.50
2018-04-27T00:56:30.715Z,8.30
2018-04-27T00:58:59.006Z,8.10
2018-04-27T01:01:27.299Z,8.00
2018-04-27T01:03:54.817Z,7.90
2018-04-27T01:06:22.308Z,7.90
2018-04-27T01:08:50.586Z,7.90
2018-04-27T01:11:18.857Z,8.00
2018-04-27T01:13:47.135Z,8.10
2018-04-27T01:16:15.411Z,8.10
2018-04-27T01:18:43.683Z,8.10
2018-04-27T01:21:11.966Z,8.20
2018-04-27T01:23:40.249Z,8.30
2018-04-27T01:26:08.562Z,8.30
2018-04-27T01:28:36.092Z,8.20
2018-04-27T01:31:03.592Z,8.30
2018-04-27T01:33:31.102Z,8.30
2018-04-27T01:35:59.388Z,8.30
2018-04-27T01:38:26.918Z,8.20
2018-04-27T01:40:54.419Z,8.20
2018-04-27T01:43:21.922Z,8.10
2018-04-27T01:45:49.445Z,8.20
2018-04-27T01:48:16.946Z,8.20
2018-04-27T01:50:44.453Z,8.10
2018-04-27T01:53:11.961Z,8.20
2018-04-27T01:55:39.506Z,8.20
2018-04-27T01:58:07.030Z,8.30
2018-04-27T02:00:34.541Z,8.30
2018-04-27T02:03:02.072Z,8.20
2018-04-27T02:05:29.575Z,8.20
2018-04-27T02:07:57.080Z,7.90
2018-04-27T02:10:24.831Z,8.00
2018-04-27T02:12:52.340Z,8.00
2018-04-27T02:15:19.875Z,7.80
2018-04-27T02:17:47.365Z,7.70
2018-04-27T02:20:14.876Z,7.60
2018-04-27T02:22:42.393Z,7.50
2018-04-27T02:25:09.887Z,7.50
2018-04-27T02:27:37.399Z,7.50
2018-04-27T02:30:04.902Z,7.50
2018-04-27T02:32:33.193Z,7.50
2018-04-27T02:35:00.687Z,7.40
2018-04-27T02:37:28.236Z,7.50
2018-04-27T02:39:55.792Z,7.50
2018-04-27T02:42:23.297Z,7.60
2018-04-27T02:44:50.816Z,7.50
2018-04-27T02:47:18.326Z,7.50
2018-04-27T02:49:46.614Z,7.50
2018-04-27T02:52:14.884Z,7.60
2018-04-27T02:54:43.186Z,7.60
2018-04-27T02:57:10.692Z,7.50
2018-04-27T02:59:38.215Z,7.60
2018-04-27T03:02:05.716Z,7.60
2018-04-27T03:04:33.214Z,7.80
2018-04-27T03:07:00.731Z,7.60
2018-04-27T03:09:28.234Z,7.40
2018-04-27T03:11:55.755Z,7.30
2018-04-27T03:14:23.475Z,7.40
2018-04-27T03:16:50.993Z,7.60
2018-04-27T03:19:18.485Z,7.70
2018-04-27T03:21:46.056Z,7.70
2018-04-27T03:24:13.546Z,7.70
2018-04-27T03:26:41.040Z,7.60
2018-04-27T03:29:09.338Z,7.50
2018-04-27T03:31:36.834Z,7.40
2018-04-27T03:34:04.354Z,7.30
2018-04-27T03:36:31.854Z,7.20
2018-04-27T03:38:59.362Z,7.20
2018-04-27T03:41:26.867Z,7.10
2018-04-27T03:43:54.373Z,7.00
2018-04-27T03:46:21.858Z,6.90
2018-04-27T03:48:49.351Z,6.90
2018-04-27T03:51:16.866Z,6.90
2018-04-27T03:53:44.366Z,7.10
2018-04-27T03:56:11.877Z,7.10
2018-04-27T03:58:40.148Z,7.10
2018-04-27T04:01:20.426Z,7.00
2018-04-27T04:03:59.726Z,6.90
2018-04-27T04:06:27.250Z,7.10
2018-04-27T04:08:54.783Z,7.20
2018-04-27T04:11:22.301Z,7.10
2018-04-27T04:13:49.804Z,7.10
2018-04-27T04:16:17.317Z,7.20
2018-04-27T04:18:44.841Z,7.20
2018-04-27T04:21:12.340Z,7.20
2018-04-27T04:23:39.852Z,7.30
2018-04-27T04:26:07.350Z,7.40
2018-04-27T04:28:34.874Z,7.50
2018-04-27T04:31:02.384Z,7.70
2018-04-27T04:33:29.887Z,7.80
2018-04-27T04:35:57.414Z,7.90
2018-04-27T04:38:24.930Z,7.90
2018-04-27T04:40:52.437Z,7.90
2018-04-27T04:43:20.696Z,8.20
2018-04-27T04:45:49.021Z,8.50
2018-04-27T04:48:16.509Z,8.40
2018-04-27T04:50:44.029Z,9.10
2018-04-27T04:53:11.561Z,9.70
2018-04-27T04:55:39.045Z,10.20
2018-04-27T04:58:06.628Z,10.30
2018-04-27T05:00:34.622Z,10.00
2018-04-27T05:03:02.202Z,10.10
2018-04-27T05:05:29.763Z,9.90
2018-04-27T05:07:58.055Z,9.70
2018-04-27T05:10:26.338Z,9.70
2018-04-27T05:12:54.626Z,9.60
2018-04-27T05:15:22.990Z,9.50
2018-04-27T05:17:51.278Z,9.30
2018-04-27T05:20:18.331Z,9.20
2018-04-27T05:22:45.821Z,9.30
2018-04-27T05:25:13.440Z,9.20
2018-04-27T05:27:41.002Z,9.20
2018-04-27T05:30:08.508Z,9.20
2018-04-27T05:32:36.057Z,9.00
2018-04-27T05:35:04.921Z,9.10
2018-04-27T05:37:32.592Z,9.60
2018-04-27T05:40:02.244Z,10.00
2018-04-27T05:42:29.922Z,10.60
2018-04-27T05:44:57.537Z,10.80
2018-04-27T05:47:25.602Z,10.70
2018-04-27T05:49:53.276Z,11.10
2018-04-27T05:52:20.814Z,11.40
2018-04-27T05:54:49.090Z,12.00
2018-04-27T05:57:16.660Z,12.00
2018-04-27T05:59:44.173Z,11.80
2018-04-27T06:02:11.738Z,11.80
2018-04-27T06:04:39.324Z,11.80
2018-04-27T06:07:06.781Z,11.80
2018-04-27T06:09:35.077Z,11.90
2018-04-27T06:12:02.608Z,11.80
2018-04-27T06:14:30.943Z,11.70
2018-04-27T06:16:58.455Z,11.60
2018-04-27T06:19:26.787Z,12.10
2018-04-27T06:21:54.345Z,12.00
2018-04-27T06:24:21.878Z,12.20
2018-04-27T06:26:49.425Z,12.00
2018-04-27T06:29:18.248Z,11.70
2018-04-27T06:31:45.909Z,11.60
2018-04-27T06:34:14.167Z,10.80
2018-04-27T06:36:42.499Z,10.30
2018-04-27T06:39:10.047Z,10.20
2018-04-27T06:41:37.619Z,10.30
2018-04-27T06:44:05.169Z,10.30
2018-04-27T06:46:32.705Z,10.30
2018-04-27T06:49:00.251Z,10.30
2018-04-27T06:51:27.875Z,10.50
2018-04-27T06:53:55.374Z,10.50
2018-04-27T06:56:22.909Z,10.30
2018-04-27T06:58:51.244Z,10.50
2018-04-27T07:01:18.807Z,10.40
2018-04-27T07:03:46.443Z,10.60
2018-04-27T07:06:14.215Z,10.80
2018-04-27T07:08:43.087Z,11.10
2018-04-27T07:11:10.684Z,11.20
2018-04-27T07:13:38.207Z,11.20
2018-04-27T07:16:05.771Z,11.10
2018-04-27T07:18:33.303Z,10.90
2018-04-27T07:21:00.909Z,10.70
2018-04-27T07:23:28.443Z,10.50
2018-04-27T07:25:56.734Z,10.60
2018-04-27T07:28:24.352Z,10.50
2018-04-27T07:30:51.875Z,10.90
2018-04-27T07:33:19.530Z,11.10
2018-04-27T07:35:47.091Z,11.10
2018-04-27T07:38:14.660Z,11.00
2018-04-27T07:40:42.204Z,11.10
2018-04-27T07:43:09.759Z,11.20
2018-04-27T07:45:37.325Z,11.30
2018-04-27T07:48:04.858Z,11.20
2018-04-27T07:50:33.207Z,11.50
2018-04-27T07:53:00.821Z,11.40
2018-04-27T07:55:28.397Z,11.50
2018-04-27T07:57:55.962Z,11.40
2018-04-27T08:00:23.520Z,11.60
2018-04-27T08:02:51.082Z,11.70
2018-04-27T08:05:18.692Z,11.80
2018-04-27T08:07:47.021Z,11.90
2018-04-27T08:10:14.555Z,11.80
2018-04-27T08:12:42.224Z,11.90
2018-04-27T08:15:09.796Z,11.70
2018-04-27T08:17:37.320Z,11.80
2018-04-27T08:20:05.627Z,12.20
2018-04-27T08:22:35.061Z,12.10
2018-04-27T08:25:02.607Z,12.30
2018-04-27T08:27:30.174Z,12.40
2018-04-27T08:29:57.734Z,12.40
2018-04-27T08:32:25.335Z,12.50
2018-04-27T08:34:53.700Z,12.40
2018-04-27T08:37:21.239Z,12.30
2018-04-27T08:39:49.713Z,12.50
2018-04-27T08:42:17.342Z,12.50
2018-04-27T08:44:44.891Z,12.50
2018-04-27T08:47:13.215Z,12.50
2018-04-27T08:49:40.742Z,12.40
2018-04-27T08:52:08.312Z,12.50
2018-04-27T08:54:35.854Z,12.60
2018-04-27T08:57:04.200Z,12.60
2018-04-27T08:59:31.839Z,12.50
2018-04-27T09:01:59.414Z,12.70
2018-04-27T09:04:27.008Z,12.80
2018-04-27T09:06:54.675Z,13.00
2018-04-27T09:09:23.017Z,12.90
2018-04-27T09:11:51.113Z,12.80
2018-04-27T09:14:18.663Z,12.90
2018-04-27T09:16:47.082Z,13.00
2018-04-27T09:19:15.396Z,13.10
2018-04-27T09:21:42.945Z,13.00
2018-04-27T09:24:10.482Z,13.20
2018-04-27T09:26:38.784Z,13.20
2018-04-27T09:29:06.321Z,13.20
2018-04-27T09:31:34.638Z,13.70
2018-04-27T09:34:02.416Z,13.60
2018-04-27T09:36:29.985Z,13.70
2018-04-27T09:38:57.551Z,13.80
2018-04-27T09:41:25.138Z,13.90
2018-04-27T09:43:52.702Z,13.80
2018-04-27T09:46:20.287Z,13.90
2018-04-27T09:48:47.846Z,14.00
2018-04-27T09:51:15.378Z,14.20
2018-04-27T09:53:43.691Z,14.20
2018-04-27T09:56:12.092Z,14.10
2018-04-27T09:58:39.694Z,14.10
2018-04-27T10:01:08.059Z,14.20
2018-04-27T10:03:35.663Z,14.10
2018-04-27T10:06:03.218Z,14.10
2018-04-27T10:08:30.758Z,14.10
2018-04-27T10:10:59.046Z,14.30
2018-04-27T10:13:27.349Z,14.40
2018-04-27T10:15:54.867Z,14.40
2018-04-27T10:18:23.219Z,14.60
2018-04-27T10:20:51.478Z,14.60
2018-04-27T10:23:18.998Z,14.70
2018-04-27T10:25:47.261Z,14.90
2018-04-27T10:28:15.610Z,14.80
2018-04-27T10:30:43.124Z,14.80
2018-04-27T10:33:10.663Z,14.80
2018-04-27T10:35:38.219Z,14.70
2018-04-27T10:38:06.529Z,14.90
2018-04-27T10:40:34.122Z,14.80
2018-04-27T10:43:01.686Z,14.90
2018-04-27T10:45:29.236Z,15.00
2018-04-27T10:47:56.890Z,15.00
2018-04-27T10:50:24.457Z,15.10
2018-04-27T10:52:53.191Z,15.10
2018-04-27T10:55:21.531Z,15.10
2018-04-27T10:57:49.112Z,15.00
2018-04-27T11:00:16.652Z,15.30
2018-04-27T11:02:44.219Z,15.40
2018-04-27T11:05:11.752Z,15.40
2018-04-27T11:07:39.289Z,15.40
2018-04-27T11:10:06.880Z,15.40
2018-04-27T11:12:34.451Z,15.50
2018-04-27T11:15:02.021Z,15.70
2018-04-27T11:17:29.559Z,15.80
2018-04-27T11:19:57.144Z,15.90
2018-04-27T11:22:24.695Z,15.90
2018-04-27T11:24:52.287Z,15.90
2018-04-27T11:27:19.866Z,15.90
2018-04-27T11:29:48.277Z,15.80
2018-04-27T11:32:15.864Z,15.80
2018-04-27T11:34:43.375Z,15.90
2018-04-27T11:37:12.707Z,16.10
2018-04-27T11:39:40.239Z,16.00
2018-04-27T11:42:07.852Z,16.20
2018-04-27T11:44:35.362Z,16.10
2018-04-27T11:47:03.803Z,16.10
2018-04-27T11:49:31.363Z,16.00
2018-04-27T11:51:58.891Z,16.40
2018-04-27T11:54:26.494Z,16.40
2018-04-27T11:56:54.089Z,16.20
2018-04-27T11:59:22.515Z,16.10
2018-04-27T12:01:51.432Z,16.20
2018-04-27T12:04:20.418Z,16.50
2018-04-27T12:06:48.004Z,16.70
2018-04-27T12:09:15.628Z,16.80
2018-04-27T12:11:43.301Z,17.00
2018-04-27T12:14:10.958Z,16.90
2018-04-27T12:16:38.484Z,17.00
2018-04-27T12:19:05.989Z,16.90
2018-04-27T12:21:33.595Z,16.70
2018-04-27T12:24:01.944Z,16.70
2018-04-27T12:26:30.255Z,16.70
2018-04-27T12:28:57.792Z,16.60
2018-04-27T12:31:25.446Z,16.90
2018-04-27T12:33:53.910Z,17.00
2018-04-27T12:36:21.688Z,16.90
2018-04-27T12:38:49.288Z,17.00
2018-04-27T12:41:17.575Z,17.30
2018-04-27T12:43:45.107Z,17.30
2018-04-27T12:46:13.440Z,17.60
2018-04-27T12:48:40.964Z,17.50
2018-04-27T12:51:08.513Z,17.70
2018-04-27T12:53:36.774Z,17.90
2018-04-27T12:56:05.063Z,18.00
2018-04-27T12:58:32.574Z,17.90
2018-04-27T13:01:00.110Z,18.00
2018-04-27T13:03:27.610Z,18.00
2018-04-27T13:05:55.118Z,18.10
2018-04-27T13:08:22.643Z,18.00
2018-04-27T13:10:50.145Z,18.10
2018-04-27T13:13:17.673Z,18.40
2018-04-27T13:15:45.938Z,18.30
2018-04-27T13:18:13.466Z,18.20
2018-04-27T13:20:40.971Z,18.30
2018-04-27T13:23:09.264Z,18.20
2018-04-27T13:25:36.761Z,18.10
2018-04-27T13:28:04.283Z,18.20
2018-04-27T13:30:31.965Z,18.20
2018-04-27T13:32:59.476Z,18.10
2018-04-27T13:35:27.014Z,17.90
2018-04-27T13:37:54.537Z,18.10
2018-04-27T13:40:22.054Z,18.40
2018-04-27T13:42:49.559Z,18.60
2018-04-27T13:45:17.325Z,18.80
2018-04-27T13:47:44.832Z,18.90
2018-04-27T13:50:12.348Z,19.00
2018-04-27T13:52:39.918Z,19.00
2018-04-27T13:55:07.463Z,19.00
2018-04-27T13:57:35.751Z,19.20
2018-04-27T14:00:03.248Z,19.10
2018-04-27T14:02:30.759Z,19.30
2018-04-27T14:04:58.278Z,19.20
2018-04-27T14:07:26.571Z,19.20
2018-04-27T14:09:55.726Z,19.10
2018-04-27T14:12:23.248Z,19.10
2018-04-27T14:14:50.799Z,19.20
2018-04-27T14:17:19.773Z,19.10
2018-04-27T14:19:49.338Z,19.00
2018-04-27T14:22:16.851Z,19.10
2018-04-27T14:24:45.165Z,19.30
2018-04-27T14:27:12.658Z,19.20
2018-04-27T14:29:40.193Z,19.40
2018-04-27T14:32:07.701Z,19.70
2018-04-27T14:34:35.979Z,19.80
2018-04-27T14:37:04.265Z,19.90
2018-04-27T14:39:32.529Z,20.00
2018-04-27T14:42:00.807Z,20.00
2018-04-27T14:44:28.299Z,19.90
2018-04-27T14:46:55.838Z,19.80
2018-04-27T14:49:24.093Z,19.90
2018-04-27T14:51:51.615Z,19.80
2018-04-27T14:54:19.119Z,19.90
2018-04-27T14:56:46.667Z,19.60
2018-04-27T14:59:14.206Z,19.60
2018-04-27T15:01:41.714Z,19.60
2018-04-27T15:04:09.997Z,19.60
2018-04-27T15:06:38.245Z,19.80
2018-04-27T15:09:09.740Z,19.60
2018-04-27T15:11:37.756Z,19.90
2018-04-27T15:14:05.270Z,19.90
2018-04-27T15:16:33.200Z,19.90
2018-04-27T15:19:02.308Z,20.00
2018-04-27T15:21:30.608Z,19.90
2018-04-27T15:23:59.279Z,19.80
2018-04-27T15:26:27.578Z,20.10
2018-04-27T15:28:56.346Z,20.00
2018-04-27T15:31:24.627Z,20.20
2018-04-27T15:33:52.908Z,20.20
2018-04-27T15:36:20.423Z,20.10
2018-04-27T15:38:47.928Z,20.20
2018-04-27T15:41:15.440Z,20.20
2018-04-27T15:43:43.010Z,20.20
2018-04-27T15:46:10.511Z,20.10
2018-04-27T15:48:40.055Z,19.90
2018-04-27T15:51:07.550Z,19.80
2018-04-27T15:53:35.066Z,20.00
2018-04-27T15:56:02.577Z,20.10
2018-04-27T15:58:30.869Z,20.30
2018-04-27T16:00:58.370Z,20.20
2018-04-27T16:03:25.889Z,20.20
2018-04-27T16:05:54.320Z,20.20
2018-04-27T16:08:21.838Z,20.20
2018-04-27T16:10:49.399Z,20.10
2018-04-27T16:16:32.322Z,20.00
2018-04-27T16:19:01.334Z,19.90
2018-04-27T16:21:28.902Z,19.80
2018-04-27T16:23:59.171Z,19.80
2018-04-27T16:26:32.541Z,19.70
2018-04-27T16:29:00.100Z,19.60
2018-04-27T16:31:27.599Z,19.50
2018-04-27T16:33:55.177Z,19.30
2018-04-27T16:36:23.467Z,19.00
2018-04-27T16:38:51.014Z,19.00
2018-04-27T16:41:18.601Z,19.10
2018-04-27T16:43:46.126Z,19.20
2018-04-27T16:46:13.748Z,19.20
2018-04-27T16:48:41.253Z,19.30
2018-04-27T16:51:09.534Z,19.10
2018-04-27T16:53:37.813Z,19.00
2018-04-27T16:56:06.140Z,18.90
2018-04-27T16:58:33.682Z,18.80
2018-04-27T17:01:01.193Z,18.80
2018-04-27T17:03:28.753Z,18.80
2018-04-27T17:05:56.280Z,18.90
2018-04-27T17:08:23.855Z,18.90
2018-04-27T17:10:51.449Z,18.90
2018-04-27T17:13:19.738Z,18.90
2018-04-27T17:15:48.066Z,18.90
2018-04-27T17:18:15.562Z,18.80
2018-04-27T17:20:43.094Z,18.90
2018-04-27T17:23:10.603Z,18.90
2018-04-27T17:25:38.113Z,19.00
2018-04-27T17:28:05.694Z,19.00
2018-04-27T17:30:33.892Z,19.00
2018-04-27T17:33:01.424Z,19.00
2018-04-27T17:35:28.924Z,18.80
2018-04-27T17:37:56.424Z,18.90
2018-04-27T17:40:24.109Z,18.80
2018-04-27T17:42:51.777Z,18.80
2018-04-27T17:45:19.362Z,18.60
2018-04-27T17:47:46.886Z,18.50
2018-04-27T17:50:14.455Z,18.40
2018-04-27T17:52:42.008Z,18.20
2018-04-27T17:55:09.525Z,18.10
2018-04-27T17:57:37.049Z,18.00
2018-04-27T18:00:05.335Z,17.70
2018-04-27T18:02:32.858Z,17.60
2018-04-27T18:05:01.556Z,17.70
2018-04-27T18:07:29.160Z,17.60
2018-04-27T18:10:03.354Z,17.40
2018-04-27T18:12:31.640Z,17.30
2018-04-27T18:14:59.198Z,17.10
2018-04-27T18:17:26.727Z,17.20
2018-04-27T18:19:58.084Z,17.10
2018-04-27T18:22:26.387Z,17.00
2018-04-27T18:24:53.918Z,16.90
2018-04-27T18:27:21.501Z,16.90
2018-04-27T18:29:49.815Z,16.60
2018-04-27T18:32:17.407Z,16.50
2018-04-27T18:34:44.932Z,16.50
2018-04-27T18:37:12.439Z,16.40
2018-04-27T18:39:39.974Z,16.30
2018-04-27T18:42:07.471Z,16.20
2018-04-27T18:44:35.993Z,16.00
2018-04-27T18:47:03.469Z,15.90
2018-04-27T18:49:30.970Z,15.90
2018-04-27T18:51:58.507Z,15.80
2018-04-27T18:54:26.062Z,15.70
2018-04-27T18:56:53.573Z,15.60
2018-04-27T18:59:21.202Z,15.60
2018-04-27T19:01:48.756Z,15.60
2018-04-27T19:04:16.302Z,15.50
2018-04-27T19:06:43.823Z,15.50
2018-04-27T19:09:11.334Z,15.40
2018-04-27T19:11:39.684Z,15.30
2018-04-27T19:14:07.917Z,15.30
2018-04-27T19:16:36.193Z,15.20
2018-04-27T19:19:04.499Z,15.10
2018-04-27T19:21:32.008Z,15.00
2018-04-27T19:23:59.530Z,15.00
2018-04-27T19:26:27.834Z,14.80
2018-04-27T19:28:55.382Z,14.70
2018-04-27T19:31:23.776Z,14.60
2018-04-27T19:33:51.301Z,14.50
2018-04-27T19:36:18.812Z,14.60
2018-04-27T19:38:47.172Z,14.40
2018-04-27T19:41:14.764Z,14.30
2018-04-27T19:43:43.067Z,14.20
2018-04-27T19:46:10.567Z,14.10
2018-04-27T19:48:38.180Z,14.10
2018-04-27T19:51:05.669Z,14.10
2018-04-27T19:53:33.186Z,14.00
2018-04-27T19:56:01.475Z,14.00
2018-04-27T19:58:28.970Z,13.90
2018-04-27T20:00:56.486Z,14.00
2018-04-27T20:03:24.854Z,14.00
2018-04-27T20:05:53.130Z,14.20
2018-04-27T20:08:21.578Z,14.10
2018-04-27T20:10:49.171Z,14.40
2018-04-27T20:13:17.380Z,14.60
2018-04-27T20:15:48.839Z,14.50
2018-04-27T20:18:17.155Z,14.70
2018-04-27T20:20:45.390Z,14.80
2018-04-27T20:23:13.686Z,14.90
2018-04-27T20:25:41.185Z,14.90
2018-04-27T20:28:08.730Z,14.90
2018-04-27T20:30:36.251Z,14.80
2018-04-27T20:33:03.763Z,14.80
2018-04-27T20:35:31.287Z,14.70
2018-04-27T20:38:02.658Z,14.70
2018-04-27T20:40:30.990Z,14.60
2018-04-27T20:43:01.395Z,14.60
2018-04-27T20:45:28.903Z,14.60
2018-04-27T20:47:56.641Z,14.50
2018-04-27T20:50:25.991Z,14.50
2018-04-27T20:52:53.523Z,14.50
2018-04-27T20:55:21.061Z,14.40
2018-04-27T20:57:49.429Z,14.40
2018-04-27T21:00:17.715Z,14.40
2018-04-27T21:02:47.037Z,14.30
2018-04-27T21:05:14.587Z,14.20
2018-04-27T21:07:42.357Z,14.20
2018-04-27T21:10:09.897Z,14.10
2018-04-27T21:12:37.402Z,14.00
2018-04-27T21:15:04.926Z,14.00
2018-04-27T21:17:32.443Z,13.90
2018-04-27T21:20:00.193Z,13.90
2018-04-27T21:22:27.722Z,13.80
2018-04-27T21:24:55.365Z,13.70
2018-04-27T21:27:22.863Z,13.60
2018-04-27T21:29:50.389Z,13.50
2018-04-27T21:32:18.583Z,13.50
2018-04-27T21:34:46.083Z,13.40
2018-04-27T21:37:13.656Z,13.30
2018-04-27T21:39:41.163Z,13.20
2018-04-27T21:42:13.217Z,13.10
2018-04-27T21:44:44.549Z,13.10
2018-04-27T21:47:17.969Z,13.00
2018-04-27T21:49:45.483Z,13.00
2018-04-27T21:52:14.792Z,13.00
2018-04-27T21:54:43.068Z,13.00
2018-04-27T21:57:25.523Z,12.90
2018-04-27T21:59:55.526Z,12.80
2018-04-27T22:08:47.596Z,12.80
2018-04-27T22:11:24.505Z,12.80
2018-04-27T22:13:52.768Z,12.70
2018-04-27T22:16:23.961Z,12.80
2018-04-27T22:18:51.478Z,12.70
2018-04-27T22:21:19.099Z,12.70
2018-04-27T22:23:46.618Z,12.70
2018-04-27T22:26:17.022Z,12.70
2018-04-27T22:28:48.964Z,12.60
2018-04-27T22:31:16.528Z,12.60
2018-04-27T22:33:47.585Z,12.60
2018-04-27T22:36:22.460Z,12.60
2018-04-27T22:42:01.156Z,12.50
2018-04-27T22:44:54.295Z,12.40
2018-04-27T22:47:28.506Z,12.50
2018-04-27T22:49:56.801Z,12.40
2018-04-27T22:52:24.354Z,12.40
2018-04-27T22:54:57.402Z,12.40
2018-04-27T23:00:27.333Z,12.50
2018-04-27T23:02:55.602Z,12.40
2018-04-27T23:05:33.806Z,12.40
2018-04-27T23:08:05.144Z,12.40
2018-04-27T23:10:39.330Z,12.40
2018-04-27T23:13:06.886Z,12.40
2018-04-27T23:15:44.930Z,12.50
2018-04-27T23:18:16.922Z,12.40
2018-04-27T23:20:55.173Z,12.40
2018-04-27T23:23:23.481Z,12.40
2018-04-27T23:25:51.936Z,12.30
2018-04-27T23:28:20.204Z,12.40
2018-04-27T23:30:47.730Z,12.20
2018-04-27T23:33:15.274Z,12.30
2018-04-27T23:35:47.394Z,12.20
2018-04-27T23:38:15.699Z,12.30
2018-04-27T23:40:43.986Z,12.20
2018-04-27T23:43:13.050Z,12.30
2018-04-27T23:45:41.476Z,12.30
2018-04-27T23:48:09.805Z,12.30
2018-04-27T23:50:38.108Z,12.30
2018-04-27T23:53:05.672Z,12.20
2018-04-27T23:55:33.184Z,12.30
2018-04-27T23:58:01.538Z,12.20
